sensor_id;sensor_type;location;lat;lon;timestamp;P1;durP1;ratioP1;P2;durP2;ratioP2
46348;SDS011;32057;47.830;19.046;2022-12-29T00:02:07;54.47;;;20.02;;
46348;SDS011;32057;47.830;19.046;2022-12-29T00:04:33;18.63;;;11.45;;
46348;SDS011;32057;47.830;19.046;2022-12-29T00:06:58;12.48;;;6.72;;
46348;SDS011;32057;47.830;19.046;2022-12-29T00:09:25;16.45;;;7.93;;
46348;SDS011;32057;47.830;19.046;2022-12-29T00:11:50;12.35;;;7.03;;
46348;SDS011;32057;47.830;19.046;2022-12-29T00:14:16;7.05;;;4.78;;
46348;SDS011;32057;47.830;19.046;2022-12-29T00:17:00;17.95;;;7.57;;
46348;SDS011;32057;47.830;19.046;2022-12-29T00:19:25;14.32;;;7.85;;
46348;SDS011;32057;47.830;19.046;2022-12-29T00:22:10;21.25;;;6.05;;
46348;SDS011;32057;47.830;19.046;2022-12-29T00:24:55;12.30;;;8.70;;
46348;SDS011;32057;47.830;19.046;2022-12-29T00:27:30;16.40;;;8.05;;
46348;SDS011;32057;47.830;19.046;2022-12-29T00:30:16;17.17;;;10.10;;
46348;SDS011;32057;47.830;19.046;2022-12-29T00:33:25;29.60;;;13.02;;
46348;SDS011;32057;47.830;19.046;2022-12-29T00:39:00;12.25;;;7.65;;
46348;SDS011;32057;47.830;19.046;2022-12-29T00:41:47;23.98;;;9.13;;
46348;SDS011;32057;47.830;19.046;2022-12-29T00:44:31;17.65;;;6.35;;
46348;SDS011;32057;47.830;19.046;2022-12-29T00:46:56;11.77;;;7.25;;
46348;SDS011;32057;47.830;19.046;2022-12-29T00:49:22;11.32;;;7.13;;
46348;SDS011;32057;47.830;19.046;2022-12-29T00:52:00;10.02;;;5.38;;
46348;SDS011;32057;47.830;19.046;2022-12-29T00:54:30;12.25;;;5.07;;
46348;SDS011;32057;47.830;19.046;2022-12-29T00:56:57;11.38;;;5.15;;
46348;SDS011;32057;47.830;19.046;2022-12-29T00:59:22;12.65;;;6.90;;
46348;SDS011;32057;47.830;19.046;2022-12-29T01:01:49;7.18;;;6.45;;
46348;SDS011;32057;47.830;19.046;2022-12-29T01:04:15;7.25;;;3.50;;
46348;SDS011;32057;47.830;19.046;2022-12-29T01:06:41;15.13;;;6.32;;
46348;SDS011;32057;47.830;19.046;2022-12-29T01:09:07;10.93;;;5.53;;
46348;SDS011;32057;47.830;19.046;2022-12-29T01:11:52;16.10;;;7.60;;
46348;SDS011;32057;47.830;19.046;2022-12-29T01:14:18;16.85;;;8.57;;
46348;SDS011;32057;47.830;19.046;2022-12-29T01:16:44;10.38;;;6.88;;
46348;SDS011;32057;47.830;19.046;2022-12-29T01:19:11;29.63;;;9.20;;
46348;SDS011;32057;47.830;19.046;2022-12-29T01:21:36;17.83;;;8.80;;
46348;SDS011;32057;47.830;19.046;2022-12-29T01:24:02;17.40;;;7.05;;
46348;SDS011;32057;47.830;19.046;2022-12-29T01:26:28;12.40;;;6.35;;
46348;SDS011;32057;47.830;19.046;2022-12-29T01:28:53;12.63;;;6.68;;
46348;SDS011;32057;47.830;19.046;2022-12-29T01:31:18;19.52;;;7.75;;
46348;SDS011;32057;47.830;19.046;2022-12-29T01:33:44;18.38;;;6.65;;
46348;SDS011;32057;47.830;19.046;2022-12-29T01:36:11;12.60;;;5.88;;
46348;SDS011;32057;47.830;19.046;2022-12-29T01:38:39;9.07;;;6.70;;
46348;SDS011;32057;47.830;19.046;2022-12-29T01:41:05;9.70;;;5.75;;
46348;SDS011;32057;47.830;19.046;2022-12-29T01:43:39;7.30;;;5.47;;
46348;SDS011;32057;47.830;19.046;2022-12-29T01:46:21;10.05;;;5.05;;
46348;SDS011;32057;47.830;19.046;2022-12-29T01:48:58;5.90;;;5.35;;
46348;SDS011;32057;47.830;19.046;2022-12-29T01:51:25;18.02;;;6.38;;
46348;SDS011;32057;47.830;19.046;2022-12-29T01:53:54;5.72;;;4.28;;
46348;SDS011;32057;47.830;19.046;2022-12-29T01:56:22;5.97;;;4.78;;
46348;SDS011;32057;47.830;19.046;2022-12-29T01:58:48;10.68;;;5.22;;
46348;SDS011;32057;47.830;19.046;2022-12-29T02:01:19;9.45;;;4.95;;
46348;SDS011;32057;47.830;19.046;2022-12-29T02:03:46;5.47;;;5.03;;
46348;SDS011;32057;47.830;19.046;2022-12-29T02:06:22;7.60;;;5.63;;
46348;SDS011;32057;47.830;19.046;2022-12-29T02:08:53;3.88;;;3.55;;
46348;SDS011;32057;47.830;19.046;2022-12-29T02:11:21;3.40;;;3.13;;
46348;SDS011;32057;47.830;19.046;2022-12-29T02:13:50;4.75;;;2.25;;
46348;SDS011;32057;47.830;19.046;2022-12-29T02:32:49;6.25;;;3.65;;
46348;SDS011;32057;47.830;19.046;2022-12-29T02:37:53;5.10;;;3.53;;
46348;SDS011;32057;47.830;19.046;2022-12-29T02:40:44;4.32;;;2.78;;
46348;SDS011;32057;47.830;19.046;2022-12-29T02:49:01;4.30;;;2.88;;
46348;SDS011;32057;47.830;19.046;2022-12-29T02:51:37;3.50;;;3.17;;
46348;SDS011;32057;47.830;19.046;2022-12-29T02:54:28;3.75;;;2.45;;
46348;SDS011;32057;47.830;19.046;2022-12-29T02:57:10;3.80;;;2.97;;
46348;SDS011;32057;47.830;19.046;2022-12-29T02:59:39;2.80;;;2.57;;
46348;SDS011;32057;47.830;19.046;2022-12-29T03:02:29;5.45;;;2.90;;
46348;SDS011;32057;47.830;19.046;2022-12-29T03:14:09;6.78;;;3.30;;
46348;SDS011;32057;47.830;19.046;2022-12-29T03:17:08;5.75;;;3.95;;
46348;SDS011;32057;47.830;19.046;2022-12-29T03:19:44;8.15;;;3.42;;
46348;SDS011;32057;47.830;19.046;2022-12-29T03:22:18;7.72;;;4.65;;
46348;SDS011;32057;47.830;19.046;2022-12-29T03:25:07;4.07;;;3.42;;
46348;SDS011;32057;47.830;19.046;2022-12-29T03:27:53;4.28;;;3.65;;
46348;SDS011;32057;47.830;19.046;2022-12-29T03:30:22;3.20;;;1.65;;
46348;SDS011;32057;47.830;19.046;2022-12-29T03:32:55;4.30;;;3.25;;
46348;SDS011;32057;47.830;19.046;2022-12-29T03:35:25;3.85;;;3.50;;
46348;SDS011;32057;47.830;19.046;2022-12-29T03:37:55;3.83;;;2.72;;
46348;SDS011;32057;47.830;19.046;2022-12-29T03:40:27;3.33;;;2.95;;
46348;SDS011;32057;47.830;19.046;2022-12-29T03:42:54;5.07;;;3.30;;
46348;SDS011;32057;47.830;19.046;2022-12-29T03:45:20;5.95;;;3.13;;
46348;SDS011;32057;47.830;19.046;2022-12-29T03:47:46;6.80;;;3.85;;
46348;SDS011;32057;47.830;19.046;2022-12-29T03:50:12;3.75;;;2.53;;
46348;SDS011;32057;47.830;19.046;2022-12-29T03:52:37;2.70;;;2.50;;
46348;SDS011;32057;47.830;19.046;2022-12-29T03:55:03;3.08;;;2.85;;
46348;SDS011;32057;47.830;19.046;2022-12-29T03:57:29;2.97;;;2.70;;
46348;SDS011;32057;47.830;19.046;2022-12-29T03:59:54;4.88;;;2.85;;
46348;SDS011;32057;47.830;19.046;2022-12-29T04:02:20;3.60;;;2.30;;
46348;SDS011;32057;47.830;19.046;2022-12-29T04:04:45;3.83;;;3.45;;
46348;SDS011;32057;47.830;19.046;2022-12-29T04:07:11;4.13;;;2.65;;
46348;SDS011;32057;47.830;19.046;2022-12-29T04:09:36;2.60;;;2.33;;
46348;SDS011;32057;47.830;19.046;2022-12-29T04:12:01;2.92;;;2.30;;
46348;SDS011;32057;47.830;19.046;2022-12-29T04:14:27;4.22;;;3.30;;
46348;SDS011;32057;47.830;19.046;2022-12-29T04:16:52;3.90;;;3.47;;
46348;SDS011;32057;47.830;19.046;2022-12-29T04:19:18;8.63;;;3.88;;
46348;SDS011;32057;47.830;19.046;2022-12-29T04:21:43;2.42;;;2.22;;
46348;SDS011;32057;47.830;19.046;2022-12-29T04:24:09;3.22;;;2.63;;
46348;SDS011;32057;47.830;19.046;2022-12-29T04:26:34;5.97;;;3.28;;
46348;SDS011;32057;47.830;19.046;2022-12-29T04:28:59;5.10;;;4.57;;
46348;SDS011;32057;47.830;19.046;2022-12-29T04:31:25;3.45;;;2.70;;
46348;SDS011;32057;47.830;19.046;2022-12-29T04:33:50;5.35;;;3.72;;
46348;SDS011;32057;47.830;19.046;2022-12-29T04:36:16;5.22;;;3.63;;
46348;SDS011;32057;47.830;19.046;2022-12-29T04:38:41;3.47;;;2.70;;
46348;SDS011;32057;47.830;19.046;2022-12-29T04:41:06;5.20;;;2.85;;
46348;SDS011;32057;47.830;19.046;2022-12-29T04:43:32;5.55;;;3.08;;
46348;SDS011;32057;47.830;19.046;2022-12-29T04:45:57;5.75;;;3.47;;
46348;SDS011;32057;47.830;19.046;2022-12-29T04:48:23;3.38;;;2.40;;
46348;SDS011;32057;47.830;19.046;2022-12-29T04:50:48;5.28;;;3.22;;
46348;SDS011;32057;47.830;19.046;2022-12-29T04:53:14;2.80;;;2.60;;
46348;SDS011;32057;47.830;19.046;2022-12-29T04:55:40;5.45;;;3.38;;
46348;SDS011;32057;47.830;19.046;2022-12-29T04:58:05;6.05;;;3.17;;
46348;SDS011;32057;47.830;19.046;2022-12-29T05:00:31;2.35;;;2.15;;
46348;SDS011;32057;47.830;19.046;2022-12-29T05:02:56;4.68;;;3.13;;
46348;SDS011;32057;47.830;19.046;2022-12-29T05:05:22;4.70;;;2.30;;
46348;SDS011;32057;47.830;19.046;2022-12-29T05:07:47;3.75;;;2.45;;
46348;SDS011;32057;47.830;19.046;2022-12-29T05:10:13;5.05;;;3.20;;
46348;SDS011;32057;47.830;19.046;2022-12-29T05:12:38;4.47;;;2.70;;
46348;SDS011;32057;47.830;19.046;2022-12-29T05:15:05;4.35;;;3.35;;
46348;SDS011;32057;47.830;19.046;2022-12-29T05:17:32;3.13;;;2.40;;
46348;SDS011;32057;47.830;19.046;2022-12-29T05:19:58;11.45;;;4.25;;
46348;SDS011;32057;47.830;19.046;2022-12-29T05:22:24;8.65;;;3.92;;
46348;SDS011;32057;47.830;19.046;2022-12-29T05:24:50;9.13;;;2.90;;
46348;SDS011;32057;47.830;19.046;2022-12-29T05:27:15;7.07;;;2.50;;
46348;SDS011;32057;47.830;19.046;2022-12-29T05:29:41;2.35;;;2.20;;
46348;SDS011;32057;47.830;19.046;2022-12-29T05:32:06;9.25;;;3.65;;
46348;SDS011;32057;47.830;19.046;2022-12-29T05:34:32;4.03;;;2.45;;
46348;SDS011;32057;47.830;19.046;2022-12-29T05:36:57;7.38;;;2.92;;
46348;SDS011;32057;47.830;19.046;2022-12-29T05:39:22;3.85;;;2.47;;
46348;SDS011;32057;47.830;19.046;2022-12-29T05:41:48;5.82;;;3.65;;
46348;SDS011;32057;47.830;19.046;2022-12-29T05:44:14;2.85;;;2.65;;
46348;SDS011;32057;47.830;19.046;2022-12-29T05:46:39;2.28;;;1.90;;
46348;SDS011;32057;47.830;19.046;2022-12-29T05:49:05;3.17;;;2.80;;
46348;SDS011;32057;47.830;19.046;2022-12-29T05:51:31;2.55;;;2.33;;
46348;SDS011;32057;47.830;19.046;2022-12-29T05:53:56;7.35;;;3.25;;
46348;SDS011;32057;47.830;19.046;2022-12-29T05:56:22;5.25;;;3.90;;
46348;SDS011;32057;47.830;19.046;2022-12-29T05:58:48;5.20;;;2.25;;
46348;SDS011;32057;47.830;19.046;2022-12-29T06:01:13;4.57;;;2.90;;
46348;SDS011;32057;47.830;19.046;2022-12-29T06:03:39;3.47;;;3.22;;
46348;SDS011;32057;47.830;19.046;2022-12-29T06:06:04;9.05;;;3.65;;
46348;SDS011;32057;47.830;19.046;2022-12-29T06:08:30;5.03;;;2.72;;
46348;SDS011;32057;47.830;19.046;2022-12-29T06:10:55;8.50;;;3.10;;
46348;SDS011;32057;47.830;19.046;2022-12-29T06:13:20;2.58;;;2.38;;
46348;SDS011;32057;47.830;19.046;2022-12-29T06:15:47;5.70;;;3.53;;
46348;SDS011;32057;47.830;19.046;2022-12-29T06:18:13;4.28;;;3.42;;
46348;SDS011;32057;47.830;19.046;2022-12-29T06:20:39;4.72;;;3.03;;
46348;SDS011;32057;47.830;19.046;2022-12-29T06:23:05;4.15;;;3.67;;
46348;SDS011;32057;47.830;19.046;2022-12-29T06:25:30;1.73;;;1.58;;
46348;SDS011;32057;47.830;19.046;2022-12-29T06:27:57;9.40;;;2.40;;
46348;SDS011;32057;47.830;19.046;2022-12-29T06:30:23;2.53;;;1.90;;
46348;SDS011;32057;47.830;19.046;2022-12-29T06:32:48;4.70;;;3.17;;
46348;SDS011;32057;47.830;19.046;2022-12-29T06:35:13;2.80;;;2.58;;
46348;SDS011;32057;47.830;19.046;2022-12-29T06:37:39;4.40;;;4.00;;
46348;SDS011;32057;47.830;19.046;2022-12-29T06:40:04;4.50;;;3.65;;
46348;SDS011;32057;47.830;19.046;2022-12-29T06:42:30;7.68;;;3.42;;
46348;SDS011;32057;47.830;19.046;2022-12-29T06:44:56;2.78;;;2.47;;
46348;SDS011;32057;47.830;19.046;2022-12-29T06:47:23;2.88;;;2.58;;
46348;SDS011;32057;47.830;19.046;2022-12-29T06:49:49;6.65;;;3.35;;
46348;SDS011;32057;47.830;19.046;2022-12-29T06:52:15;8.85;;;5.28;;
46348;SDS011;32057;47.830;19.046;2022-12-29T06:54:40;3.70;;;3.03;;
46348;SDS011;32057;47.830;19.046;2022-12-29T06:57:06;3.67;;;2.72;;
46348;SDS011;32057;47.830;19.046;2022-12-29T06:59:31;7.38;;;4.63;;
46348;SDS011;32057;47.830;19.046;2022-12-29T07:01:57;9.57;;;4.78;;
46348;SDS011;32057;47.830;19.046;2022-12-29T07:04:22;6.45;;;4.68;;
46348;SDS011;32057;47.830;19.046;2022-12-29T07:06:47;4.85;;;3.42;;
46348;SDS011;32057;47.830;19.046;2022-12-29T07:09:13;8.73;;;3.50;;
46348;SDS011;32057;47.830;19.046;2022-12-29T07:11:38;6.13;;;3.05;;
46348;SDS011;32057;47.830;19.046;2022-12-29T07:14:04;6.97;;;3.80;;
46348;SDS011;32057;47.830;19.046;2022-12-29T07:16:29;5.53;;;4.18;;
46348;SDS011;32057;47.830;19.046;2022-12-29T07:18:56;7.07;;;3.65;;
46348;SDS011;32057;47.830;19.046;2022-12-29T07:21:22;3.20;;;2.55;;
46348;SDS011;32057;47.830;19.046;2022-12-29T07:23:47;5.90;;;3.53;;
46348;SDS011;32057;47.830;19.046;2022-12-29T07:26:14;5.70;;;3.58;;
46348;SDS011;32057;47.830;19.046;2022-12-29T07:28:42;3.60;;;2.78;;
46348;SDS011;32057;47.830;19.046;2022-12-29T07:31:15;6.28;;;3.47;;
46348;SDS011;32057;47.830;19.046;2022-12-29T07:33:45;6.53;;;3.83;;
46348;SDS011;32057;47.830;19.046;2022-12-29T07:36:11;4.45;;;2.88;;
46348;SDS011;32057;47.830;19.046;2022-12-29T07:38:37;8.55;;;4.60;;
46348;SDS011;32057;47.830;19.046;2022-12-29T07:41:03;8.68;;;5.10;;
46348;SDS011;32057;47.830;19.046;2022-12-29T07:43:29;7.75;;;3.17;;
46348;SDS011;32057;47.830;19.046;2022-12-29T07:45:54;6.38;;;3.25;;
46348;SDS011;32057;47.830;19.046;2022-12-29T07:48:19;5.75;;;4.10;;
46348;SDS011;32057;47.830;19.046;2022-12-29T07:50:45;4.72;;;3.45;;
46348;SDS011;32057;47.830;19.046;2022-12-29T07:53:11;7.60;;;4.07;;
46348;SDS011;32057;47.830;19.046;2022-12-29T07:55:36;5.00;;;3.70;;
46348;SDS011;32057;47.830;19.046;2022-12-29T07:58:02;5.43;;;3.35;;
46348;SDS011;32057;47.830;19.046;2022-12-29T08:00:27;6.53;;;3.38;;
46348;SDS011;32057;47.830;19.046;2022-12-29T08:02:53;4.53;;;3.92;;
46348;SDS011;32057;47.830;19.046;2022-12-29T08:05:18;4.65;;;3.97;;
46348;SDS011;32057;47.830;19.046;2022-12-29T08:07:44;7.35;;;5.82;;
46348;SDS011;32057;47.830;19.046;2022-12-29T08:10:10;4.80;;;4.13;;
46348;SDS011;32057;47.830;19.046;2022-12-29T08:12:37;4.50;;;3.63;;
46348;SDS011;32057;47.830;19.046;2022-12-29T08:15:03;4.70;;;4.22;;
46348;SDS011;32057;47.830;19.046;2022-12-29T08:17:29;4.80;;;3.20;;
46348;SDS011;32057;47.830;19.046;2022-12-29T08:19:54;3.85;;;3.47;;
46348;SDS011;32057;47.830;19.046;2022-12-29T08:22:20;11.10;;;5.80;;
46348;SDS011;32057;47.830;19.046;2022-12-29T08:24:45;7.88;;;4.97;;
46348;SDS011;32057;47.830;19.046;2022-12-29T08:27:11;5.57;;;5.05;;
46348;SDS011;32057;47.830;19.046;2022-12-29T08:29:36;10.60;;;7.28;;
46348;SDS011;32057;47.830;19.046;2022-12-29T08:32:02;13.10;;;7.30;;
46348;SDS011;32057;47.830;19.046;2022-12-29T08:34:27;17.65;;;6.25;;
46348;SDS011;32057;47.830;19.046;2022-12-29T08:36:52;11.70;;;7.63;;
46348;SDS011;32057;47.830;19.046;2022-12-29T08:39:18;9.48;;;6.00;;
46348;SDS011;32057;47.830;19.046;2022-12-29T08:41:43;9.50;;;6.65;;
46348;SDS011;32057;47.830;19.046;2022-12-29T08:44:09;11.10;;;6.95;;
46348;SDS011;32057;47.830;19.046;2022-12-29T08:46:34;10.80;;;7.30;;
46348;SDS011;32057;47.830;19.046;2022-12-29T08:48:59;9.68;;;6.63;;
46348;SDS011;32057;47.830;19.046;2022-12-29T08:51:25;11.30;;;7.05;;
46348;SDS011;32057;47.830;19.046;2022-12-29T08:53:50;10.10;;;7.90;;
46348;SDS011;32057;47.830;19.046;2022-12-29T08:56:16;10.27;;;6.80;;
46348;SDS011;32057;47.830;19.046;2022-12-29T08:58:42;12.05;;;7.95;;
46348;SDS011;32057;47.830;19.046;2022-12-29T09:01:08;8.38;;;6.50;;
46348;SDS011;32057;47.830;19.046;2022-12-29T09:03:34;21.10;;;8.45;;
46348;SDS011;32057;47.830;19.046;2022-12-29T09:06:00;12.52;;;6.93;;
46348;SDS011;32057;47.830;19.046;2022-12-29T09:08:25;11.15;;;7.03;;
46348;SDS011;32057;47.830;19.046;2022-12-29T09:10:51;9.07;;;6.97;;
46348;SDS011;32057;47.830;19.046;2022-12-29T09:13:16;12.48;;;7.72;;
46348;SDS011;32057;47.830;19.046;2022-12-29T09:15:43;12.35;;;6.65;;
46348;SDS011;32057;47.830;19.046;2022-12-29T09:18:09;13.48;;;8.57;;
46348;SDS011;32057;47.830;19.046;2022-12-29T09:20:35;12.60;;;7.15;;
46348;SDS011;32057;47.830;19.046;2022-12-29T09:23:01;9.10;;;6.63;;
46348;SDS011;32057;47.830;19.046;2022-12-29T09:25:27;14.85;;;7.18;;
46348;SDS011;32057;47.830;19.046;2022-12-29T09:27:53;7.22;;;5.80;;
46348;SDS011;32057;47.830;19.046;2022-12-29T09:30:19;8.65;;;7.75;;
46348;SDS011;32057;47.830;19.046;2022-12-29T09:32:46;16.33;;;8.85;;
46348;SDS011;32057;47.830;19.046;2022-12-29T09:35:15;12.85;;;8.20;;
46348;SDS011;32057;47.830;19.046;2022-12-29T09:37:41;13.30;;;9.07;;
46348;SDS011;32057;47.830;19.046;2022-12-29T09:40:09;11.73;;;6.40;;
46348;SDS011;32057;47.830;19.046;2022-12-29T09:48:31;9.48;;;6.05;;
46348;SDS011;32057;47.830;19.046;2022-12-29T09:51:03;9.20;;;6.78;;
46348;SDS011;32057;47.830;19.046;2022-12-29T09:53:58;10.63;;;7.18;;
46348;SDS011;32057;47.830;19.046;2022-12-29T09:56:27;14.32;;;6.53;;
46348;SDS011;32057;47.830;19.046;2022-12-29T09:59:13;7.78;;;6.30;;
46348;SDS011;32057;47.830;19.046;2022-12-29T10:01:53;7.95;;;5.93;;
46348;SDS011;32057;47.830;19.046;2022-12-29T10:04:28;8.80;;;7.63;;
46348;SDS011;32057;47.830;19.046;2022-12-29T10:09:43;10.98;;;6.35;;
46348;SDS011;32057;47.830;19.046;2022-12-29T10:20:24;12.57;;;8.00;;
46348;SDS011;32057;47.830;19.046;2022-12-29T10:25:42;12.80;;;7.45;;
46348;SDS011;32057;47.830;19.046;2022-12-29T10:28:22;6.38;;;5.47;;
46348;SDS011;32057;47.830;19.046;2022-12-29T10:30:54;9.15;;;6.88;;
46348;SDS011;32057;47.830;19.046;2022-12-29T10:33:24;11.27;;;6.88;;
46348;SDS011;32057;47.830;19.046;2022-12-29T10:35:56;11.30;;;6.57;;
46348;SDS011;32057;47.830;19.046;2022-12-29T10:44:33;12.18;;;6.95;;
46348;SDS011;32057;47.830;19.046;2022-12-29T10:47:00;13.80;;;6.90;;
46348;SDS011;32057;47.830;19.046;2022-12-29T10:49:30;11.57;;;6.90;;
46348;SDS011;32057;47.830;19.046;2022-12-29T10:51:58;12.38;;;8.02;;
46348;SDS011;32057;47.830;19.046;2022-12-29T10:54:38;9.43;;;6.35;;
46348;SDS011;32057;47.830;19.046;2022-12-29T10:57:14;11.40;;;6.20;;
46348;SDS011;32057;47.830;19.046;2022-12-29T10:59:42;6.55;;;5.43;;
46348;SDS011;32057;47.830;19.046;2022-12-29T11:07:25;7.97;;;6.93;;
46348;SDS011;32057;47.830;19.046;2022-12-29T11:09:51;9.15;;;6.57;;
46348;SDS011;32057;47.830;19.046;2022-12-29T11:14:42;12.82;;;7.57;;
46348;SDS011;32057;47.830;19.046;2022-12-29T11:17:09;10.27;;;6.82;;
46348;SDS011;32057;47.830;19.046;2022-12-29T11:19:41;11.35;;;7.68;;
46348;SDS011;32057;47.830;19.046;2022-12-29T11:22:14;11.23;;;7.40;;
46348;SDS011;32057;47.830;19.046;2022-12-29T11:24:51;10.52;;;6.22;;
46348;SDS011;32057;47.830;19.046;2022-12-29T11:27:19;9.27;;;5.57;;
46348;SDS011;32057;47.830;19.046;2022-12-29T11:29:49;11.85;;;7.10;;
46348;SDS011;32057;47.830;19.046;2022-12-29T11:32:22;11.38;;;7.07;;
46348;SDS011;32057;47.830;19.046;2022-12-29T11:34:52;7.80;;;4.90;;
46348;SDS011;32057;47.830;19.046;2022-12-29T11:37:39;8.50;;;5.85;;
46348;SDS011;32057;47.830;19.046;2022-12-29T11:40:05;6.82;;;4.40;;
46348;SDS011;32057;47.830;19.046;2022-12-29T11:42:47;10.10;;;5.47;;
46348;SDS011;32057;47.830;19.046;2022-12-29T11:47:44;10.73;;;6.28;;
46348;SDS011;32057;47.830;19.046;2022-12-29T11:50:21;9.82;;;6.45;;
46348;SDS011;32057;47.830;19.046;2022-12-29T11:52:56;11.27;;;6.63;;
46348;SDS011;32057;47.830;19.046;2022-12-29T11:55:24;13.68;;;5.82;;
46348;SDS011;32057;47.830;19.046;2022-12-29T11:57:52;10.18;;;6.80;;
46348;SDS011;32057;47.830;19.046;2022-12-29T12:00:21;11.05;;;6.15;;
46348;SDS011;32057;47.830;19.046;2022-12-29T12:03:01;12.30;;;5.65;;
46348;SDS011;32057;47.830;19.046;2022-12-29T12:05:49;8.25;;;5.95;;
46348;SDS011;32057;47.830;19.046;2022-12-29T12:11:19;8.05;;;6.05;;
46348;SDS011;32057;47.830;19.046;2022-12-29T12:13:56;8.95;;;5.97;;
46348;SDS011;32057;47.830;19.046;2022-12-29T12:16:24;8.38;;;5.50;;
46348;SDS011;32057;47.830;19.046;2022-12-29T12:19:40;9.63;;;6.38;;
46348;SDS011;32057;47.830;19.046;2022-12-29T12:22:29;11.38;;;6.35;;
46348;SDS011;32057;47.830;19.046;2022-12-29T12:25:03;9.75;;;6.57;;
46348;SDS011;32057;47.830;19.046;2022-12-29T12:30:29;9.02;;;7.03;;
46348;SDS011;32057;47.830;19.046;2022-12-29T12:33:03;8.98;;;6.07;;
46348;SDS011;32057;47.830;19.046;2022-12-29T12:38:24;9.75;;;5.30;;
46348;SDS011;32057;47.830;19.046;2022-12-29T12:44:00;11.82;;;6.20;;
46348;SDS011;32057;47.830;19.046;2022-12-29T12:52:14;14.18;;;7.25;;
46348;SDS011;32057;47.830;19.046;2022-12-29T13:00:43;8.98;;;5.40;;
46348;SDS011;32057;47.830;19.046;2022-12-29T13:03:17;7.50;;;5.05;;
46348;SDS011;32057;47.830;19.046;2022-12-29T13:06:21;9.10;;;5.95;;
46348;SDS011;32057;47.830;19.046;2022-12-29T13:11:56;10.75;;;6.80;;
46348;SDS011;32057;47.830;19.046;2022-12-29T13:26:08;8.90;;;6.28;;
46348;SDS011;32057;47.830;19.046;2022-12-29T13:31:28;7.15;;;5.13;;
46348;SDS011;32057;47.830;19.046;2022-12-29T13:37:09;10.43;;;6.90;;
46348;SDS011;32057;47.830;19.046;2022-12-29T13:39:42;7.75;;;6.25;;
46348;SDS011;32057;47.830;19.046;2022-12-29T13:42:12;8.30;;;6.35;;
46348;SDS011;32057;47.830;19.046;2022-12-29T13:44:40;7.68;;;6.25;;
46348;SDS011;32057;47.830;19.046;2022-12-29T13:50:13;11.50;;;6.90;;
46348;SDS011;32057;47.830;19.046;2022-12-29T14:01:12;9.35;;;6.07;;
46348;SDS011;32057;47.830;19.046;2022-12-29T14:03:49;11.55;;;7.10;;
46348;SDS011;32057;47.830;19.046;2022-12-29T14:08:54;7.90;;;5.60;;
46348;SDS011;32057;47.830;19.046;2022-12-29T14:11:32;7.53;;;6.30;;
46348;SDS011;32057;47.830;19.046;2022-12-29T14:14:00;14.48;;;6.47;;
46348;SDS011;32057;47.830;19.046;2022-12-29T14:16:47;8.88;;;5.25;;
46348;SDS011;32057;47.830;19.046;2022-12-29T14:19:17;11.18;;;6.47;;
46348;SDS011;32057;47.830;19.046;2022-12-29T14:22:06;9.40;;;6.95;;
46348;SDS011;32057;47.830;19.046;2022-12-29T14:34:58;6.95;;;5.85;;
46348;SDS011;32057;47.830;19.046;2022-12-29T14:37:34;11.00;;;6.25;;
46348;SDS011;32057;47.830;19.046;2022-12-29T14:40:05;9.55;;;5.68;;
46348;SDS011;32057;47.830;19.046;2022-12-29T14:42:39;11.75;;;6.70;;
46348;SDS011;32057;47.830;19.046;2022-12-29T14:47:39;9.02;;;6.80;;
46348;SDS011;32057;47.830;19.046;2022-12-29T14:50:25;11.77;;;7.32;;
46348;SDS011;32057;47.830;19.046;2022-12-29T14:53:04;8.23;;;6.35;;
46348;SDS011;32057;47.830;19.046;2022-12-29T15:00:32;11.27;;;7.25;;
46348;SDS011;32057;47.830;19.046;2022-12-29T15:03:22;20.42;;;9.15;;
46348;SDS011;32057;47.830;19.046;2022-12-29T15:08:33;10.20;;;6.93;;
46348;SDS011;32057;47.830;19.046;2022-12-29T15:11:13;7.82;;;6.65;;
46348;SDS011;32057;47.830;19.046;2022-12-29T15:18:57;12.68;;;7.38;;
46348;SDS011;32057;47.830;19.046;2022-12-29T15:21:25;7.28;;;5.03;;
46348;SDS011;32057;47.830;19.046;2022-12-29T15:23:53;11.73;;;7.25;;
46348;SDS011;32057;47.830;19.046;2022-12-29T15:26:20;8.23;;;5.00;;
46348;SDS011;32057;47.830;19.046;2022-12-29T15:28:47;7.45;;;5.93;;
46348;SDS011;32057;47.830;19.046;2022-12-29T15:31:15;13.30;;;8.18;;
46348;SDS011;32057;47.830;19.046;2022-12-29T15:33:42;11.55;;;7.88;;
46348;SDS011;32057;47.830;19.046;2022-12-29T15:36:10;13.30;;;8.20;;
46348;SDS011;32057;47.830;19.046;2022-12-29T15:38:38;8.73;;;7.45;;
46348;SDS011;32057;47.830;19.046;2022-12-29T15:41:05;14.50;;;6.43;;
46348;SDS011;32057;47.830;19.046;2022-12-29T15:46:29;6.50;;;5.60;;
46348;SDS011;32057;47.830;19.046;2022-12-29T15:48:56;7.15;;;5.68;;
46348;SDS011;32057;47.830;19.046;2022-12-29T15:51:28;16.50;;;7.22;;
46348;SDS011;32057;47.830;19.046;2022-12-29T15:53:58;12.13;;;6.18;;
46348;SDS011;32057;47.830;19.046;2022-12-29T15:56:24;14.30;;;6.10;;
46348;SDS011;32057;47.830;19.046;2022-12-29T15:58:53;13.68;;;7.55;;
46348;SDS011;32057;47.830;19.046;2022-12-29T16:01:19;11.88;;;7.80;;
46348;SDS011;32057;47.830;19.046;2022-12-29T16:03:51;9.85;;;6.18;;
46348;SDS011;32057;47.830;19.046;2022-12-29T16:06:37;22.45;;;7.30;;
46348;SDS011;32057;47.830;19.046;2022-12-29T16:09:05;15.55;;;7.88;;
46348;SDS011;32057;47.830;19.046;2022-12-29T16:11:36;10.57;;;7.50;;
46348;SDS011;32057;47.830;19.046;2022-12-29T16:14:08;10.68;;;6.95;;
46348;SDS011;32057;47.830;19.046;2022-12-29T16:16:39;10.30;;;6.80;;
46348;SDS011;32057;47.830;19.046;2022-12-29T16:22:00;12.02;;;7.20;;
46348;SDS011;32057;47.830;19.046;2022-12-29T16:24:29;13.85;;;7.88;;
46348;SDS011;32057;47.830;19.046;2022-12-29T16:27:02;11.30;;;6.45;;
46348;SDS011;32057;47.830;19.046;2022-12-29T16:29:34;11.60;;;6.72;;
46348;SDS011;32057;47.830;19.046;2022-12-29T16:32:00;11.70;;;6.05;;
46348;SDS011;32057;47.830;19.046;2022-12-29T16:37:03;9.77;;;6.93;;
46348;SDS011;32057;47.830;19.046;2022-12-29T16:39:49;7.55;;;5.40;;
46348;SDS011;32057;47.830;19.046;2022-12-29T16:42:34;8.55;;;5.78;;
46348;SDS011;32057;47.830;19.046;2022-12-29T16:45:20;9.85;;;6.28;;
46348;SDS011;32057;47.830;19.046;2022-12-29T16:50:32;16.85;;;10.07;;
46348;SDS011;32057;47.830;19.046;2022-12-29T16:52:58;10.40;;;5.50;;
46348;SDS011;32057;47.830;19.046;2022-12-29T16:55:25;6.00;;;5.13;;
46348;SDS011;32057;47.830;19.046;2022-12-29T16:57:51;10.23;;;7.18;;
46348;SDS011;32057;47.830;19.046;2022-12-29T17:00:22;18.38;;;6.25;;
46348;SDS011;32057;47.830;19.046;2022-12-29T17:02:49;10.65;;;6.57;;
46348;SDS011;32057;47.830;19.046;2022-12-29T17:05:19;10.07;;;7.05;;
46348;SDS011;32057;47.830;19.046;2022-12-29T17:07:44;8.27;;;7.05;;
46348;SDS011;32057;47.830;19.046;2022-12-29T17:10:10;13.63;;;7.38;;
46348;SDS011;32057;47.830;19.046;2022-12-29T17:12:38;11.35;;;6.30;;
46348;SDS011;32057;47.830;19.046;2022-12-29T17:15:09;5.53;;;4.88;;
46348;SDS011;32057;47.830;19.046;2022-12-29T17:22:49;8.90;;;6.40;;
46348;SDS011;32057;47.830;19.046;2022-12-29T17:25:20;12.18;;;6.85;;
46348;SDS011;32057;47.830;19.046;2022-12-29T17:28:02;13.30;;;6.65;;
46348;SDS011;32057;47.830;19.046;2022-12-29T17:30:37;8.77;;;6.22;;
46348;SDS011;32057;47.830;19.046;2022-12-29T17:33:05;10.90;;;6.93;;
46348;SDS011;32057;47.830;19.046;2022-12-29T17:35:34;15.95;;;8.88;;
46348;SDS011;32057;47.830;19.046;2022-12-29T17:37:59;8.80;;;6.50;;